Time;durP1;ratioP1;P1;durP2;ratioP2;P2;SDS_P1;SDS_P2;PMS_P1;PMS_P2;Temp;Humidity;BMP_temperature;BMP_pressure;BME280_temperature;BME280_humidity;BME280_pressure;Samples;Min_cycle;Max_cycle;Signal;HPM_P1;HPM_P2
2022/01/11 00:00:30;;;;;;;12.03;9.60;;;2.40;99.70;;;;;;5029880;28;20622;-84
2022/01/11 00:02:57;;;;;;;13.20;9.30;;;2.30;98.40;;;;;;5020322;28;20189;-85
2022/01/11 00:07:53;;;;;;;11.00;9.00;;;2.10;98.00;;;;;;5034219;28;20284;-83
2022/01/11 00:10:28;;;;;;;12.97;9.27;;;2.00;98.10;;;;;;5027101;28;20195;-85
2022/01/11 00:12:55;;;;;;;10.17;8.43;;;1.90;97.70;;;;;;5015908;28;20177;-86
2022/01/11 00:15:21;;;;;;;11.10;8.57;;;1.80;99.10;;;;;;5016389;28;20212;-85
2022/01/11 00:17:47;;;;;;;9.90;8.67;;;1.90;99.70;;;;;;5018431;28;20193;-85
2022/01/11 00:20:15;;;;;;;11.10;8.83;;;2.00;99.40;;;;;;5010878;28;20181;-85
2022/01/11 00:25:29;;;;;;;9.57;7.97;;;2.10;99.30;;;;;;5006158;28;20252;-85
2022/01/11 00:27:55;;;;;;;10.50;8.80;;;2.20;99.20;;;;;;5020218;28;20248;-85
2022/01/11 00:30:22;;;;;;;9.80;8.77;;;2.20;99.00;;;;;;5019103;28;20277;-85
2022/01/11 00:32:52;;;;;;;10.83;8.27;;;2.00;97.70;;;;;;5014662;28;20261;-85
2022/01/11 00:35:22;;;;;;;10.03;8.37;;;2.00;98.80;;;;;;5019578;28;20286;-86
2022/01/11 00:37:49;;;;;;;12.03;7.90;;;2.00;99.50;;;;;;5013792;28;20190;-85
2022/01/11 00:40:15;;;;;;;9.80;7.93;;;1.90;98.90;;;;;;5013360;28;20201;-84
2022/01/11 00:42:40;;;;;;;9.70;8.37;;;1.80;99.50;;;;;;5017406;28;20217;-85
2022/01/11 00:45:12;;;;;;;11.43;8.67;;;1.90;99.90;;;;;;5021595;28;20256;-85
2022/01/11 00:47:39;;;;;;;11.43;8.97;;;1.80;98.80;;;;;;5019376;28;20217;-85
2022/01/11 00:50:08;;;;;;;8.83;7.93;;;1.60;99.90;;;;;;5013800;28;20209;-85
2022/01/11 00:52:34;;;;;;;11.77;9.07;;;1.70;99.90;;;;;;5018927;28;20778;-85
2022/01/11 00:55:00;;;;;;;13.23;9.60;;;1.90;99.90;;;;;;5007629;28;20353;-85
2022/01/11 00:57:26;;;;;;;10.57;8.03;;;1.90;99.90;;;;;;5008271;28;20566;-85
2022/01/11 00:59:53;;;;;;;10.37;8.83;;;2.00;99.90;;;;;;5006747;28;20560;-85
2022/01/11 01:02:20;;;;;;;12.70;9.10;;;1.90;99.30;;;;;;5017387;28;20189;-85
2022/01/11 01:04:45;;;;;;;11.70;8.70;;;1.80;99.30;;;;;;5012799;28;20217;-86
2022/01/11 01:07:11;;;;;;;12.77;9.27;;;1.60;98.40;;;;;;5016696;28;20230;-86
2022/01/11 01:09:55;;;;;;;11.77;9.50;;;1.40;99.70;;;;;;5003089;28;20209;-85
2022/01/11 01:12:21;;;;;;;10.63;9.53;;;1.40;99.90;;;;;;5020990;28;20197;-85
2022/01/11 01:14:46;;;;;;;10.93;9.50;;;1.40;99.90;;;;;;5017758;28;20213;-85
2022/01/11 01:17:12;;;;;;;15.47;10.47;;;1.50;99.90;;;;;;5017255;28;20213;-85
2022/01/11 01:19:38;;;;;;;13.53;10.90;;;1.50;99.90;;;;;;5015019;28;20201;-86
2022/01/11 01:22:04;;;;;;;13.27;9.77;;;1.50;99.90;;;;;;5012390;28;20194;-85
2022/01/11 01:24:29;;;;;;;12.90;9.27;;;1.50;99.90;;;;;;5016881;28;20219;-85
2022/01/11 01:26:55;;;;;;;12.20;10.20;;;1.60;99.90;;;;;;5013593;28;20266;-85
2022/01/11 01:29:21;;;;;;;11.33;10.17;;;1.70;99.90;;;;;;5016447;28;20192;-85
2022/01/11 01:31:46;;;;;;;13.33;9.80;;;1.60;99.90;;;;;;5013439;28;20197;-85
2022/01/11 01:34:12;;;;;;;12.20;9.93;;;1.60;99.90;;;;;;5020355;28;20213;-86
2022/01/11 01:36:38;;;;;;;12.50;9.67;;;1.60;99.90;;;;;;5012501;28;20189;-85
2022/01/11 01:39:04;;;;;;;13.23;11.10;;;1.70;99.90;;;;;;5014823;28;20688;-85
2022/01/11 01:41:30;;;;;;;15.67;11.13;;;1.70;99.90;;;;;;5010506;28;20189;-86
2022/01/11 01:44:00;;;;;;;14.57;11.33;;;1.60;99.90;;;;;;5017853;28;20190;-85
2022/01/11 01:46:25;;;;;;;13.27;11.10;;;1.70;99.90;;;;;;5009829;28;20213;-86
2022/01/11 01:48:54;;;;;;;13.93;11.17;;;1.60;99.90;;;;;;5009806;28;20213;-85
2022/01/11 01:51:20;;;;;;;13.93;12.03;;;1.70;99.90;;;;;;5022736;28;20194;-84
2022/01/11 01:53:49;;;;;;;17.63;13.77;;;1.70;99.90;;;;;;5013512;28;20197;-85
2022/01/11 01:56:17;;;;;;;18.20;13.00;;;1.70;99.90;;;;;;5013554;28;20815;-85
2022/01/11 01:58:43;;;;;;;14.70;12.27;;;1.70;99.90;;;;;;5025749;28;20182;-86
2022/01/11 02:01:12;;;;;;;13.80;12.10;;;1.80;99.90;;;;;;5021440;28;20190;-86
2022/01/11 02:03:40;;;;;;;14.27;11.37;;;1.80;99.90;;;;;;5020709;28;20613;-87
2022/01/11 02:06:14;;;;;;;14.90;12.27;;;1.80;99.90;;;;;;5021851;28;20202;-85
2022/01/11 02:08:42;;;;;;;17.07;13.07;;;1.70;99.90;;;;;;5018525;28;20284;-85
2022/01/11 02:11:08;;;;;;;18.83;14.23;;;1.70;99.90;;;;;;5017595;28;20644;-85
2022/01/11 02:13:35;;;;;;;18.70;12.70;;;1.70;99.90;;;;;;5019090;28;20182;-85
2022/01/11 02:16:03;;;;;;;13.13;11.73;;;1.70;99.90;;;;;;5023059;28;20221;-86
2022/01/11 02:18:29;;;;;;;14.57;11.83;;;1.70;99.90;;;;;;5024891;28;20205;-85
2022/01/11 02:20:58;;;;;;;17.20;13.00;;;1.70;99.90;;;;;;5016899;28;20197;-86
2022/01/11 02:23:28;;;;;;;16.97;13.03;;;1.70;99.90;;;;;;5018064;28;20197;-86
2022/01/11 02:25:54;;;;;;;17.10;14.00;;;1.70;99.90;;;;;;5027041;28;20213;-86
2022/01/11 02:28:22;;;;;;;20.60;14.83;;;1.70;99.90;;;;;;5022003;28;20199;-86
2022/01/11 02:30:48;;;;;;;20.17;14.13;;;1.70;99.90;;;;;;5021131;28;20178;-85
2022/01/11 02:33:32;;;;;;;17.43;14.43;;;1.70;99.90;;;;;;5030513;28;20185;-86
2022/01/11 02:35:59;;;;;;;21.63;14.23;;;1.60;99.90;;;;;;5019340;28;20345;-85
2022/01/11 02:38:25;;;;;;;19.53;14.40;;;1.70;99.90;;;;;;5017176;28;20201;-85
2022/01/11 02:40:50;;;;;;;19.30;13.97;;;1.70;99.90;;;;;;5023608;28;20202;-85
2022/01/11 02:43:16;;;;;;;19.77;13.90;;;1.70;99.90;;;;;;5023726;28;20195;-86
2022/01/11 02:45:42;;;;;;;22.90;14.53;;;1.60;99.90;;;;;;5016485;28;20237;-86
2022/01/11 02:48:08;;;;;;;16.70;13.27;;;1.60;99.90;;;;;;5032054;28;20236;-85
2022/01/11 02:50:34;;;;;;;19.43;14.77;;;1.60;99.90;;;;;;5026199;28;20221;-86
2022/01/11 02:53:01;;;;;;;18.00;14.67;;;1.70;99.90;;;;;;5015904;28;20204;-86
2022/01/11 02:55:27;;;;;;;18.70;16.33;;;1.70;99.90;;;;;;5024087;28;20273;-86
2022/01/11 02:57:54;;;;;;;19.23;13.90;;;1.60;99.90;;;;;;5048578;28;20250;-85
2022/01/11 03:00:22;;;;;;;21.00;15.20;;;1.50;99.90;;;;;;5014381;28;20677;-86
2022/01/11 03:02:48;;;;;;;23.47;16.40;;;1.50;99.90;;;;;;5012379;28;20194;-85
2022/01/11 03:05:14;;;;;;;16.23;14.10;;;1.40;99.90;;;;;;5007538;28;20579;-85
2022/01/11 03:07:42;;;;;;;21.57;15.27;;;1.50;99.90;;;;;;5005105;28;20743;-86
2022/01/11 03:10:34;;;;;;;20.73;16.47;;;1.50;99.90;;;;;;5011722;28;20309;-86
2022/01/11 03:13:04;;;;;;;19.40;15.83;;;1.50;99.90;;;;;;5015968;28;20202;-86
2022/01/11 03:15:30;;;;;;;22.47;15.37;;;1.60;99.90;;;;;;5011476;28;20222;-86
2022/01/11 03:17:56;;;;;;;20.97;15.43;;;1.60;99.90;;;;;;5008862;28;20201;-86
2022/01/11 03:20:22;;;;;;;20.07;15.53;;;1.50;99.90;;;;;;5012931;28;20230;-86
2022/01/11 03:22:48;;;;;;;22.07;16.30;;;1.60;99.90;;;;;;5018070;28;20212;-86
2022/01/11 03:25:14;;;;;;;22.17;15.40;;;1.50;99.90;;;;;;5018535;28;20222;-86
2022/01/11 03:27:40;;;;;;;17.97;14.47;;;1.60;99.90;;;;;;5013971;28;20225;-85
2022/01/11 03:30:07;;;;;;;18.67;14.10;;;1.50;99.90;;;;;;5013009;28;20690;-86
2022/01/11 03:32:33;;;;;;;17.10;13.90;;;1.70;99.90;;;;;;5018092;28;20570;-86
2022/01/11 03:35:00;;;;;;;17.60;14.73;;;1.70;99.90;;;;;;5018000;28;20213;-86
2022/01/11 03:37:26;;;;;;;19.97;14.33;;;1.70;99.90;;;;;;5014876;28;20198;-86
2022/01/11 03:39:52;;;;;;;17.47;14.07;;;1.80;99.90;;;;;;5019396;28;20228;-86
2022/01/11 03:42:18;;;;;;;17.73;13.60;;;1.80;99.90;;;;;;5010677;28;20194;-86
2022/01/11 03:44:43;;;;;;;18.63;15.53;;;1.80;99.90;;;;;;5013431;28;20612;-86
2022/01/11 03:47:09;;;;;;;19.10;14.47;;;1.80;99.90;;;;;;5019290;28;20212;-85
2022/01/11 03:49:35;;;;;;;19.27;14.47;;;1.80;99.90;;;;;;5014859;28;20332;-85
2022/01/11 03:52:01;;;;;;;17.43;14.87;;;1.80;99.90;;;;;;5013372;28;20189;-85
2022/01/11 03:54:30;;;;;;;18.43;14.83;;;1.70;99.90;;;;;;5010384;28;20273;-84
2022/01/11 03:56:56;;;;;;;18.70;14.20;;;1.70;99.90;;;;;;5012330;28;20182;-85
2022/01/11 03:59:23;;;;;;;21.60;15.97;;;1.70;99.90;;;;;;5010926;28;20683;-85
2022/01/11 04:01:51;;;;;;;23.33;14.80;;;1.60;99.90;;;;;;5012007;28;20212;-85
2022/01/11 04:04:17;;;;;;;19.97;13.80;;;1.60;99.90;;;;;;5013449;28;20243;-85
2022/01/11 04:06:43;;;;;;;17.07;14.90;;;1.60;99.90;;;;;;5013974;28;20220;-85
2022/01/11 04:09:11;;;;;;;22.33;16.07;;;1.60;99.90;;;;;;5010631;28;20253;-83
2022/01/11 04:11:37;;;;;;;16.30;13.63;;;1.60;99.90;;;;;;5020291;28;20181;-86
2022/01/11 04:14:03;;;;;;;18.80;15.33;;;1.50;99.90;;;;;;5014402;28;20205;-86
2022/01/11 04:16:29;;;;;;;20.70;14.97;;;1.40;99.90;;;;;;5000047;28;20203;-85
2022/01/11 04:18:55;;;;;;;20.30;15.40;;;1.40;99.90;;;;;;5016210;28;20200;-85
2022/01/11 04:21:20;;;;;;;19.67;14.40;;;1.40;99.90;;;;;;5017503;28;20664;-85
2022/01/11 04:23:46;;;;;;;19.20;15.17;;;1.40;99.90;;;;;;5014218;28;20258;-85
2022/01/11 04:26:12;;;;;;;20.43;15.03;;;1.40;99.90;;;;;;5013627;28;20726;-85
2022/01/11 04:28:37;;;;;;;21.20;14.63;;;1.40;99.90;;;;;;5011839;28;20187;-85
2022/01/11 04:31:03;;;;;;;22.90;14.43;;;1.40;99.90;;;;;;5005267;28;20190;-85
2022/01/11 04:33:31;;;;;;;19.37;14.90;;;1.40;99.90;;;;;;5012153;28;20194;-86
2022/01/11 04:35:58;;;;;;;18.17;13.87;;;1.40;99.90;;;;;;5019669;28;20201;-85
2022/01/11 04:38:28;;;;;;;23.53;15.63;;;1.40;99.90;;;;;;5010740;28;20186;-85
2022/01/11 04:40:55;;;;;;;18.33;14.50;;;1.30;99.90;;;;;;5015511;28;20206;-85
2022/01/11 04:43:20;;;;;;;19.67;13.97;;;1.40;99.90;;;;;;5018851;28;20197;-85
2022/01/11 04:45:47;;;;;;;18.60;13.97;;;1.40;99.90;;;;;;5007713;28;20225;-85
2022/01/11 04:48:14;;;;;;;22.40;14.00;;;1.40;99.90;;;;;;5008844;28;20214;-88
2022/01/11 04:50:41;;;;;;;22.53;14.50;;;1.40;99.90;;;;;;5016353;28;20194;-86
2022/01/11 04:53:07;;;;;;;15.87;14.10;;;1.40;99.90;;;;;;5014222;28;20216;-84
2022/01/11 04:55:34;;;;;;;21.57;13.97;;;1.40;99.90;;;;;;5013007;28;20217;-85
2022/01/11 04:58:00;;;;;;;20.63;14.07;;;1.50;99.90;;;;;;5007956;28;20206;-87
2022/01/11 05:00:26;;;;;;;20.40;14.53;;;1.60;99.90;;;;;;5017617;28;20193;-85
2022/01/11 05:02:55;;;;;;;21.20;14.17;;;1.60;99.90;;;;;;5007623;28;20200;-85
2022/01/11 05:05:23;;;;;;;23.00;18.40;;;1.60;99.90;;;;;;5013623;28;20209;-85
2022/01/11 05:07:48;;;;;;;20.50;16.10;;;1.60;99.90;;;;;;5017394;28;20220;-84
2022/01/11 05:10:14;;;;;;;17.73;13.30;;;1.70;99.90;;;;;;5015995;28;20189;-85
2022/01/11 05:12:40;;;;;;;17.37;14.23;;;1.80;99.90;;;;;;5013432;28;20209;-85
2022/01/11 05:15:10;;;;;;;20.27;14.43;;;1.80;99.90;;;;;;5010388;28;20289;-85
2022/01/11 05:17:37;;;;;;;19.47;14.70;;;1.90;99.90;;;;;;5015257;28;20201;-85
2022/01/11 05:20:04;;;;;;;17.77;14.70;;;1.90;99.90;;;;;;5010849;28;20237;-86
2022/01/11 05:22:30;;;;;;;19.53;14.17;;;1.90;99.90;;;;;;5010108;28;20201;-85
2022/01/11 05:24:56;;;;;;;18.30;13.90;;;2.00;99.90;;;;;;5003695;28;20218;-85
2022/01/11 05:27:21;;;;;;;18.63;13.23;;;2.00;99.90;;;;;;5000323;28;20214;-85
2022/01/11 05:29:47;;;;;;;17.50;14.10;;;2.00;99.90;;;;;;5008833;28;20194;-85
2022/01/11 05:32:13;;;;;;;17.77;13.37;;;2.00;99.90;;;;;;5000941;28;20256;-84
2022/01/11 05:34:39;;;;;;;18.33;13.33;;;1.90;99.90;;;;;;5000436;28;20213;-83
2022/01/11 05:37:05;;;;;;;18.70;13.97;;;2.00;99.90;;;;;;5028848;28;20267;-85
2022/01/11 05:39:31;;;;;;;18.00;13.27;;;2.00;99.90;;;;;;5027663;28;20740;-85
2022/01/11 05:41:56;;;;;;;18.00;13.37;;;2.00;99.90;;;;;;5010882;28;20209;-85
2022/01/11 05:44:22;;;;;;;19.80;13.50;;;1.90;99.90;;;;;;5017909;28;20356;-88
2022/01/11 05:46:48;;;;;;;17.57;14.20;;;2.00;99.90;;;;;;5033536;28;20201;-85
2022/01/11 05:49:14;;;;;;;21.23;15.43;;;2.00;99.90;;;;;;5030404;28;20664;-84
2022/01/11 05:51:40;;;;;;;17.47;13.50;;;1.90;99.90;;;;;;5015964;28;20230;-86
2022/01/11 05:54:06;;;;;;;18.20;15.00;;;1.90;99.90;;;;;;5011243;28;20218;-84
2022/01/11 05:56:31;;;;;;;14.43;12.90;;;2.00;99.90;;;;;;5016897;28;20240;-84
2022/01/11 05:58:57;;;;;;;19.90;14.93;;;2.00;99.90;;;;;;5007428;28;20336;-84
2022/01/11 06:01:23;;;;;;;20.97;14.67;;;1.90;99.90;;;;;;5009422;28;20198;-84
2022/01/11 06:03:49;;;;;;;18.77;14.00;;;2.00;99.90;;;;;;5016532;28;20190;-84
2022/01/11 06:06:15;;;;;;;23.43;15.07;;;2.00;99.90;;;;;;5004364;28;20210;-84
2022/01/11 06:08:41;;;;;;;18.97;13.87;;;2.00;99.90;;;;;;5014769;28;20261;-85
2022/01/11 06:11:07;;;;;;;21.67;14.73;;;2.00;99.90;;;;;;5014454;28;20241;-84
2022/01/11 06:13:33;;;;;;;19.73;12.97;;;1.90;99.90;;;;;;5016874;28;20221;-85
2022/01/11 06:15:59;;;;;;;18.20;13.70;;;1.90;99.90;;;;;;5005279;28;20427;-84
2022/01/11 06:18:25;;;;;;;19.37;14.13;;;1.90;99.90;;;;;;5014056;28;20257;-85
2022/01/11 06:20:50;;;;;;;19.27;13.83;;;2.00;99.90;;;;;;5021579;28;20255;-84
2022/01/11 06:23:16;;;;;;;18.40;12.90;;;1.90;99.90;;;;;;5022341;28;20185;-85
2022/01/11 06:25:42;;;;;;;20.00;13.33;;;1.90;99.90;;;;;;5024865;28;21056;-85
2022/01/11 06:28:07;;;;;;;17.87;13.77;;;1.90;99.90;;;;;;5022074;28;20213;-85
2022/01/11 06:30:33;;;;;;;19.67;13.07;;;1.90;99.90;;;;;;5022087;28;20209;-85
2022/01/11 06:32:59;;;;;;;15.80;13.20;;;1.90;99.90;;;;;;5017227;28;20280;-85
2022/01/11 06:35:25;;;;;;;18.53;13.37;;;1.90;99.90;;;;;;5022506;28;20209;-85
2022/01/11 06:37:52;;;;;;;22.37;14.07;;;1.80;99.90;;;;;;5020408;28;20248;-85
2022/01/11 06:40:19;;;;;;;19.33;13.20;;;1.90;99.90;;;;;;5020537;28;20208;-85
2022/01/11 06:42:46;;;;;;;17.97;12.93;;;2.00;99.90;;;;;;5026621;28;20201;-84
2022/01/11 06:45:12;;;;;;;17.50;12.50;;;2.10;99.90;;;;;;5026329;28;20212;-85
2022/01/11 06:47:38;;;;;;;17.73;13.23;;;2.10;99.90;;;;;;5022335;28;20224;-85
2022/01/11 06:50:05;;;;;;;17.43;13.23;;;2.10;99.90;;;;;;5023650;28;20220;-85
2022/01/11 06:52:30;;;;;;;15.37;12.20;;;2.10;99.90;;;;;;5022798;28;20651;-84
2022/01/11 06:54:56;;;;;;;15.07;12.33;;;2.10;99.90;;;;;;5024516;28;20209;-85
2022/01/11 06:57:22;;;;;;;14.57;11.77;;;2.20;99.90;;;;;;5021521;28;20209;-84
2022/01/11 06:59:48;;;;;;;18.83;12.47;;;2.20;99.90;;;;;;5027466;28;20261;-85
2022/01/11 07:02:13;;;;;;;17.37;13.60;;;2.20;99.90;;;;;;5024409;28;20209;-85
2022/01/11 07:04:39;;;;;;;15.80;13.13;;;2.30;99.90;;;;;;5007629;28;20227;-85
2022/01/11 07:07:07;;;;;;;24.47;15.90;;;2.40;99.90;;;;;;5023336;28;20620;-85
2022/01/11 07:09:34;;;;;;;21.20;17.93;;;2.40;99.90;;;;;;5017466;28;20488;-83
2022/01/11 07:12:00;;;;;;;19.07;13.33;;;2.40;99.90;;;;;;5023899;28;20212;-85
2022/01/11 07:14:25;;;;;;;23.33;17.67;;;2.40;99.90;;;;;;5021240;28;20214;-85
2022/01/11 07:16:51;;;;;;;20.50;13.40;;;2.40;99.90;;;;;;5008149;28;20250;-84
2022/01/11 07:19:18;;;;;;;19.53;13.83;;;2.30;99.90;;;;;;5020486;28;20230;-85
2022/01/11 07:21:44;;;;;;;18.03;14.10;;;2.20;99.90;;;;;;5023263;28;20267;-85
2022/01/11 07:24:12;;;;;;;24.80;17.07;;;2.20;99.90;;;;;;5020519;28;20205;-85
2022/01/11 07:26:38;;;;;;;16.87;12.33;;;2.20;99.90;;;;;;5017118;28;20671;-85
2022/01/11 07:29:05;;;;;;;20.23;13.93;;;2.10;99.90;;;;;;5018627;28;20300;-84
2022/01/11 07:31:32;;;;;;;19.87;14.30;;;2.20;99.90;;;;;;5021378;28;20188;-85
2022/01/11 07:33:58;;;;;;;20.73;14.43;;;2.10;99.90;;;;;;5019661;28;20975;-84
2022/01/11 07:36:24;;;;;;;20.07;14.33;;;2.10;99.90;;;;;;5020962;28;20216;-84
2022/01/11 07:38:51;;;;;;;19.80;14.60;;;2.20;99.90;;;;;;5020496;28;20699;-85
2022/01/11 07:41:17;;;;;;;23.67;16.50;;;2.10;99.90;;;;;;5022268;28;20561;-85
2022/01/11 07:43:44;;;;;;;19.40;13.97;;;2.10;99.90;;;;;;5020051;28;20208;-85
2022/01/11 07:46:10;;;;;;;20.37;13.17;;;2.10;99.90;;;;;;5021362;28;20198;-85
2022/01/11 07:48:36;;;;;;;17.03;14.23;;;2.10;99.90;;;;;;5021595;28;20260;-85
2022/01/11 07:51:02;;;;;;;17.17;12.83;;;2.00;99.90;;;;;;5021985;28;20412;-85
2022/01/11 07:53:28;;;;;;;21.13;15.80;;;2.10;99.90;;;;;;5024815;28;20190;-85
2022/01/11 07:55:54;;;;;;;20.60;15.00;;;2.20;99.90;;;;;;5028875;28;20379;-84
2022/01/11 07:58:20;;;;;;;22.63;15.40;;;2.20;99.90;;;;;;5027245;28;20197;-85
2022/01/11 08:00:46;;;;;;;20.53;15.23;;;2.30;99.90;;;;;;5027303;28;20216;-85
2022/01/11 08:03:12;;;;;;;27.33;20.10;;;2.10;99.90;;;;;;5022103;28;20189;-85
2022/01/11 08:05:38;;;;;;;34.60;22.37;;;2.20;99.90;;;;;;5030373;28;20220;-85
2022/01/11 08:08:05;;;;;;;26.03;21.07;;;2.20;99.90;;;;;;5025736;28;20225;-85
2022/01/11 08:10:30;;;;;;;26.10;18.63;;;2.20;99.90;;;;;;5030384;28;20185;-85
2022/01/11 08:12:56;;;;;;;23.93;16.73;;;2.20;99.90;;;;;;5025396;28;20216;-84
2022/01/11 08:15:22;;;;;;;20.10;14.63;;;2.20;99.90;;;;;;5025193;28;20218;-84
2022/01/11 08:17:49;;;;;;;18.53;14.13;;;2.20;99.90;;;;;;5020722;28;20210;-85
2022/01/11 08:20:15;;;;;;;44.87;32.17;;;2.30;99.90;;;;;;5009194;28;20201;-85
2022/01/11 08:22:41;;;;;;;33.23;25.70;;;2.30;99.90;;;;;;5027015;28;20197;-86
2022/01/11 08:25:08;;;;;;;44.07;31.37;;;2.30;99.90;;;;;;5019286;28;20206;-86
2022/01/11 08:27:34;;;;;;;25.33;19.43;;;2.40;99.90;;;;;;5038480;28;20220;-86
2022/01/11 08:30:03;;;;;;;24.00;20.07;;;2.40;99.90;;;;;;5025267;28;20198;-86
2022/01/11 08:32:29;;;;;;;20.93;16.97;;;2.40;99.90;;;;;;5026691;28;20231;-86
2022/01/11 08:34:54;;;;;;;21.10;18.27;;;2.50;99.90;;;;;;5029748;28;20206;-86
2022/01/11 08:37:20;;;;;;;33.80;28.13;;;2.50;99.90;;;;;;5035654;28;20186;-86
2022/01/11 08:39:46;;;;;;;22.67;17.87;;;2.60;99.90;;;;;;5035018;28;20193;-85
2022/01/11 08:42:15;;;;;;;20.13;16.93;;;2.70;99.90;;;;;;5022896;28;20279;-83
2022/01/11 08:44:46;;;;;;;17.03;15.17;;;2.70;99.90;;;;;;5023357;28;20276;-85
2022/01/11 08:47:16;;;;;;;19.23;15.97;;;2.80;99.90;;;;;;5022662;28;20314;-87
2022/01/11 08:49:42;;;;;;;16.67;14.97;;;2.80;99.90;;;;;;5017015;28;20215;-85
2022/01/11 08:52:08;;;;;;;18.73;16.77;;;2.80;99.90;;;;;;5022547;28;20218;-85
2022/01/11 08:54:33;;;;;;;19.27;16.30;;;2.90;99.90;;;;;;5021803;28;20315;-85
2022/01/11 08:57:00;;;;;;;20.27;18.27;;;2.90;99.90;;;;;;5020496;28;20240;-85
2022/01/11 08:59:30;;;;;;;17.30;13.47;;;2.90;99.90;;;;;;5020959;28;20181;-85
2022/01/11 09:01:59;;;;;;;18.73;13.97;;;2.90;99.90;;;;;;5017647;28;20236;-85
2022/01/11 09:04:26;;;;;;;22.63;14.00;;;2.90;99.90;;;;;;5023706;28;20710;-85
2022/01/11 09:06:53;;;;;;;15.33;12.97;;;2.90;99.90;;;;;;5019203;28;20205;-85
2022/01/11 09:09:19;;;;;;;16.93;14.73;;;2.90;99.90;;;;;;5020181;28;20201;-85
2022/01/11 09:11:46;;;;;;;19.27;15.33;;;3.00;99.90;;;;;;5023194;28;20212;-86
2022/01/11 09:14:12;;;;;;;16.83;13.13;;;3.00;99.90;;;;;;5024743;28;20218;-84
2022/01/11 09:16:38;;;;;;;20.37;13.90;;;3.00;99.90;;;;;;5025626;28;20490;-85
2022/01/11 09:19:04;;;;;;;15.57;13.30;;;3.10;99.90;;;;;;5019668;28;20189;-85
2022/01/11 09:21:31;;;;;;;16.80;13.93;;;3.10;99.90;;;;;;5019778;28;20238;-84
2022/01/11 09:23:57;;;;;;;20.00;13.87;;;3.20;99.90;;;;;;5024663;28;20193;-85
2022/01/11 09:26:24;;;;;;;17.40;14.53;;;3.20;99.90;;;;;;5023445;28;20225;-86
2022/01/11 09:28:50;;;;;;;20.73;18.57;;;3.10;99.90;;;;;;5021100;28;20212;-85
2022/01/11 09:31:17;;;;;;;21.13;18.37;;;3.20;99.90;;;;;;5011659;28;20193;-85
2022/01/11 09:33:43;;;;;;;20.23;17.97;;;3.10;99.90;;;;;;5021291;28;20403;-85
2022/01/11 09:36:09;;;;;;;16.97;14.63;;;3.10;99.90;;;;;;5017193;28;20640;-85
2022/01/11 09:38:35;;;;;;;17.43;13.30;;;3.10;99.90;;;;;;5021633;28;20197;-85
2022/01/11 09:41:01;;;;;;;16.87;13.27;;;3.10;99.90;;;;;;5018248;28;20648;-85
2022/01/11 09:43:29;;;;;;;17.67;15.17;;;3.10;99.90;;;;;;5018421;28;20202;-84
2022/01/11 09:45:55;;;;;;;18.63;14.97;;;3.10;99.90;;;;;;5021371;28;20205;-85
2022/01/11 09:48:23;;;;;;;19.87;14.00;;;3.20;99.90;;;;;;5017240;28;20321;-84
2022/01/11 09:50:49;;;;;;;19.00;13.27;;;3.30;99.90;;;;;;5021241;28;20186;-84
2022/01/11 09:53:15;;;;;;;21.33;16.80;;;3.30;99.90;;;;;;5022227;28;20407;-85
2022/01/11 09:55:41;;;;;;;18.33;15.30;;;3.40;99.90;;;;;;5022599;28;20741;-84
2022/01/11 09:58:07;;;;;;;18.13;15.63;;;3.40;99.90;;;;;;5024237;28;20192;-85
2022/01/11 10:00:33;;;;;;;20.97;17.53;;;3.40;99.90;;;;;;5026791;28;20212;-85
2022/01/11 10:02:59;;;;;;;20.00;14.67;;;3.40;99.90;;;;;;5023044;28;20190;-85
2022/01/11 10:05:25;;;;;;;17.33;15.03;;;3.50;99.90;;;;;;5021342;28;20209;-84
2022/01/11 10:07:52;;;;;;;17.67;14.13;;;3.50;99.90;;;;;;5026157;28;20213;-85
2022/01/11 10:10:23;;;;;;;16.93;12.90;;;3.50;99.90;;;;;;5023837;28;20211;-84
2022/01/11 10:12:53;;;;;;;19.10;14.30;;;3.50;99.90;;;;;;5021973;28;20190;-85
2022/01/11 10:15:28;;;;;;;18.67;13.90;;;3.50;99.90;;;;;;5022469;28;20509;-84
2022/01/11 10:17:53;;;;;;;18.13;13.47;;;3.60;99.90;;;;;;5024634;28;20204;-84
2022/01/11 10:20:22;;;;;;;19.50;15.17;;;3.70;99.90;;;;;;5026752;28;20450;-86
2022/01/11 10:23:01;;;;;;;20.70;13.10;;;3.70;99.90;;;;;;5041034;28;20195;-84
2022/01/11 10:25:40;;;;;;;17.50;13.33;;;3.70;99.90;;;;;;5026734;28;20221;-85
2022/01/11 10:28:06;;;;;;;17.73;13.23;;;3.80;99.90;;;;;;5028634;28;20201;-85
2022/01/11 10:30:33;;;;;;;34.27;25.80;;;3.90;99.90;;;;;;5007967;28;20196;-84
2022/01/11 10:33:01;;;;;;;18.70;16.67;;;4.00;99.90;;;;;;5022381;28;20185;-86
2022/01/11 10:35:42;;;;;;;16.33;13.90;;;4.10;99.90;;;;;;5025560;28;20229;-84
2022/01/11 10:38:09;;;;;;;18.00;14.90;;;4.00;99.90;;;;;;5023992;28;20221;-84
2022/01/11 10:40:46;;;;;;;16.73;13.73;;;4.00;99.90;;;;;;5023076;28;20185;-84
2022/01/11 10:43:13;;;;;;;19.40;17.40;;;4.10;99.90;;;;;;5023451;28;20262;-84
2022/01/11 10:45:46;;;;;;;20.43;18.30;;;4.20;99.90;;;;;;5022330;28;20217;-84
2022/01/11 10:48:18;;;;;;;20.73;16.00;;;4.30;99.90;;;;;;5024994;28;20763;-84
2022/01/11 10:50:46;;;;;;;16.40;13.77;;;4.30;99.90;;;;;;5019456;28;20221;-84
2022/01/11 10:53:16;;;;;;;17.90;13.97;;;4.30;99.90;;;;;;5024173;28;20190;-84
2022/01/11 10:55:43;;;;;;;19.70;14.90;;;4.50;99.90;;;;;;5023180;28;20202;-85
2022/01/11 10:58:13;;;;;;;19.90;14.17;;;4.50;99.90;;;;;;5021804;28;20256;-84
2022/01/11 11:00:47;;;;;;;19.23;15.23;;;4.50;99.90;;;;;;5024778;28;20188;-84
2022/01/11 11:03:20;;;;;;;23.47;19.80;;;4.60;99.90;;;;;;5024980;28;20594;-84
2022/01/11 11:05:53;;;;;;;21.10;15.87;;;4.60;99.90;;;;;;5040402;28;20822;-85
2022/01/11 11:08:23;;;;;;;17.20;14.13;;;4.50;99.90;;;;;;5016945;28;20491;-85
2022/01/11 11:11:02;;;;;;;20.47;14.17;;;4.60;99.90;;;;;;5024160;28;20202;-85
2022/01/11 11:13:33;;;;;;;17.40;15.50;;;4.70;99.90;;;;;;5027023;28;20256;-86
2022/01/11 11:16:25;;;;;;;16.17;14.43;;;4.80;99.90;;;;;;5029630;28;20281;-87
2022/01/11 11:18:53;;;;;;;14.87;13.33;;;4.90;99.90;;;;;;5044517;28;20730;-86
2022/01/11 11:21:35;;;;;;;17.97;14.00;;;4.90;99.90;;;;;;5024430;28;20224;-84
2022/01/11 11:24:08;;;;;;;19.77;15.03;;;4.80;99.90;;;;;;5031685;28;20197;-87
2022/01/11 11:26:45;;;;;;;20.27;13.60;;;5.00;99.90;;;;;;5040377;28;20202;-86
2022/01/11 11:29:11;;;;;;;18.77;14.03;;;5.00;99.90;;;;;;5026485;28;20189;-84
2022/01/11 11:31:38;;;;;;;20.27;14.67;;;5.10;99.90;;;;;;5022845;28;20194;-84
2022/01/11 11:34:07;;;;;;;43.10;33.17;;;5.10;99.90;;;;;;5017796;28;21925;-84
2022/01/11 11:36:35;;;;;;;26.37;18.60;;;5.10;99.90;;;;;;5023625;28;20713;-83
2022/01/11 11:39:22;;;;;;;18.37;14.13;;;5.00;99.90;;;;;;5023356;28;20212;-83
2022/01/11 11:41:59;;;;;;;18.57;15.17;;;5.10;99.90;;;;;;5022599;28;20247;-84
2022/01/11 11:44:28;;;;;;;18.70;15.23;;;5.10;99.90;;;;;;5019829;28;20856;-85
2022/01/11 11:47:05;;;;;;;16.77;14.63;;;5.20;99.90;;;;;;5026821;28;20209;-84
2022/01/11 11:49:44;;;;;;;16.57;13.63;;;5.20;99.90;;;;;;5023832;28;20225;-84
2022/01/11 11:52:18;;;;;;;20.83;15.23;;;5.20;99.90;;;;;;5023783;28;20597;-84
2022/01/11 11:54:50;;;;;;;17.83;14.67;;;5.30;99.90;;;;;;5028735;28;20203;-84
2022/01/11 11:57:16;;;;;;;17.63;14.13;;;5.40;99.90;;;;;;5030090;28;20197;-85
2022/01/11 12:00:05;;;;;;;17.77;14.37;;;5.50;99.90;;;;;;5025660;28;20205;-85
2022/01/11 12:02:34;;;;;;;16.93;13.43;;;5.60;99.90;;;;;;5021372;28;20201;-85
2022/01/11 12:05:00;;;;;;;16.77;13.43;;;5.70;99.20;;;;;;5021741;28;20218;-85
2022/01/11 12:07:46;;;;;;;21.50;15.67;;;5.80;99.50;;;;;;5024670;28;20208;-85
2022/01/11 12:10:47;;;;;;;17.53;14.80;;;6.00;98.00;;;;;;5023448;28;20197;-85
2022/01/11 12:13:52;;;;;;;17.07;13.30;;;6.10;97.70;;;;;;5023695;28;20532;-86
2022/01/11 12:16:26;;;;;;;16.73;13.00;;;6.10;96.50;;;;;;5024907;28;20375;-85
2022/01/11 12:18:59;;;;;;;19.27;13.27;;;6.20;96.90;;;;;;5023119;28;20177;-85
2022/01/11 12:21:29;;;;;;;19.80;14.07;;;6.20;96.90;;;;;;5025461;28;20193;-84
2022/01/11 12:23:56;;;;;;;17.57;12.90;;;6.30;96.80;;;;;;5026665;28;20178;-85
2022/01/11 12:26:31;;;;;;;16.07;13.13;;;6.20;96.30;;;;;;5027401;28;20325;-86
2022/01/11 12:29:03;;;;;;;18.73;13.90;;;6.30;95.70;;;;;;5027513;28;20177;-86
2022/01/11 12:31:31;;;;;;;16.80;13.27;;;6.20;95.90;;;;;;5022390;28;20190;-86
2022/01/11 12:33:58;;;;;;;15.07;12.07;;;6.20;95.80;;;;;;5023959;28;20622;-86
2022/01/11 12:36:50;;;;;;;14.17;12.33;;;6.20;94.90;;;;;;5030610;28;20185;-86
2022/01/11 12:39:15;;;;;;;16.27;13.10;;;6.20;95.10;;;;;;5017417;28;20205;-85
2022/01/11 12:41:41;;;;;;;16.07;13.23;;;6.30;95.70;;;;;;5026947;28;20220;-84
2022/01/11 12:47:02;;;;;;;14.03;11.57;;;6.90;91.70;;;;;;5029531;28;20217;-85
2022/01/11 12:49:29;;;;;;;11.67;9.67;;;7.30;89.40;;;;;;5027089;28;20651;-85